createdAt,value
2018-10-15T00:00:27.019Z,16.69
2018-10-15T00:02:56.149Z,16.72
2018-10-15T00:05:25.726Z,16.67
2018-10-15T00:07:55.923Z,16.67
2018-10-15T00:10:24.902Z,16.61
2018-10-15T00:12:53.742Z,16.58
2018-10-15T00:15:27.394Z,16.58
2018-10-15T00:17:56.614Z,16.55
2018-10-15T00:20:25.618Z,16.55
2018-10-15T00:22:55.404Z,16.53
2018-10-15T00:25:25.262Z,16.51
2018-10-15T00:27:56.075Z,16.50
2018-10-15T00:30:26.396Z,16.48
2018-10-15T00:32:55.488Z,16.43
2018-10-15T00:35:25.289Z,16.44
2018-10-15T00:37:54.914Z,16.43
2018-10-15T00:40:24.439Z,16.42
2018-10-15T00:42:55.947Z,16.38
2018-10-15T00:45:25.886Z,16.36
2018-10-15T00:47:55.238Z,16.30
2018-10-15T00:50:24.801Z,16.32
2018-10-15T00:52:54.295Z,16.28
2018-10-15T00:55:25.361Z,16.26
2018-10-15T00:57:55.327Z,16.27
2018-10-15T01:00:24.703Z,16.24
2018-10-15T01:02:54.544Z,16.23
2018-10-15T01:05:23.477Z,16.23
2018-10-15T01:07:53.339Z,16.19
2018-10-15T01:10:22.475Z,16.21
2018-10-15T01:12:52.469Z,16.18
2018-10-15T01:15:22.025Z,16.16
2018-10-15T01:17:51.023Z,16.17
2018-10-15T01:20:20.204Z,16.15
2018-10-15T01:22:50.851Z,16.15
2018-10-15T01:25:19.774Z,16.10
2018-10-15T01:27:49.298Z,16.08
2018-10-15T01:30:19.282Z,16.05
2018-10-15T01:32:48.306Z,16.03
2018-10-15T01:35:18.629Z,16.02
2018-10-15T01:37:48.206Z,16.02
2018-10-15T01:40:18.227Z,16.01
2018-10-15T01:42:47.832Z,15.98
2018-10-15T01:45:17.845Z,15.96
2018-10-15T01:47:47.454Z,15.93
2018-10-15T01:50:16.713Z,15.93
2018-10-15T01:52:46.462Z,15.89
2018-10-15T01:55:15.790Z,15.86
2018-10-15T01:57:45.065Z,15.87
2018-10-15T02:00:14.918Z,15.83
2018-10-15T02:02:44.699Z,15.78
2018-10-15T02:05:14.236Z,15.77
2018-10-15T02:07:43.354Z,15.76
2018-10-15T02:10:13.878Z,15.76
2018-10-15T02:12:42.929Z,15.75
2018-10-15T02:15:13.019Z,15.72
2018-10-15T02:17:42.992Z,15.70
2018-10-15T02:20:12.193Z,15.70
2018-10-15T02:22:42.186Z,15.64
2018-10-15T02:25:11.095Z,15.61
2018-10-15T02:27:40.584Z,15.60
2018-10-15T02:30:11.161Z,15.58
2018-10-15T02:32:40.974Z,15.56
2018-10-15T02:35:10.830Z,15.53
2018-10-15T02:37:42.073Z,15.55
2018-10-15T02:40:11.510Z,15.53
2018-10-15T02:42:42.958Z,15.51
2018-10-15T02:45:14.023Z,15.51
2018-10-15T02:47:44.293Z,15.46
2018-10-15T02:50:14.881Z,15.45
2018-10-15T02:52:44.506Z,15.42
2018-10-15T02:55:14.046Z,15.39
2018-10-15T02:57:43.578Z,15.38
2018-10-15T03:00:14.387Z,15.37
2018-10-15T03:02:44.623Z,15.37
2018-10-15T03:05:14.305Z,15.34
2018-10-15T03:07:43.752Z,15.30
2018-10-15T03:10:13.316Z,15.32
2018-10-15T03:12:42.827Z,15.30
2018-10-15T03:15:12.227Z,15.28
2018-10-15T03:17:41.390Z,15.27
2018-10-15T03:20:12.315Z,15.26
2018-10-15T03:22:42.814Z,15.24
2018-10-15T03:25:12.502Z,15.22
2018-10-15T03:27:42.459Z,15.21
2018-10-15T03:30:12.960Z,15.23
2018-10-15T03:32:43.175Z,15.21
2018-10-15T03:35:12.894Z,15.22
2018-10-15T03:37:42.288Z,15.21
2018-10-15T03:40:11.737Z,15.18
2018-10-15T03:42:40.842Z,15.17
2018-10-15T03:45:10.243Z,15.14
2018-10-15T03:47:39.297Z,15.13
2018-10-15T03:50:08.799Z,15.11
2018-10-15T03:52:39.153Z,15.07
2018-10-15T03:55:08.186Z,15.07
2018-10-15T03:57:37.872Z,15.02
2018-10-15T04:00:07.527Z,15.02
2018-10-15T04:02:39.300Z,15.04
2018-10-15T04:05:09.254Z,15.04
2018-10-15T04:07:38.765Z,15.03
2018-10-15T04:10:08.536Z,14.99
2018-10-15T04:12:37.644Z,14.95
2018-10-15T04:15:08.910Z,14.95
2018-10-15T04:17:38.358Z,14.93
2018-10-15T04:20:08.243Z,14.94
2018-10-15T04:22:43.611Z,14.95
2018-10-15T04:25:12.776Z,14.94
2018-10-15T04:27:41.776Z,14.93
2018-10-15T04:30:11.255Z,14.91
2018-10-15T04:32:41.604Z,14.91
2018-10-15T04:35:11.174Z,14.89
2018-10-15T04:37:40.648Z,14.87
2018-10-15T04:40:11.666Z,14.91
2018-10-15T04:42:41.873Z,14.90
2018-10-15T04:45:12.729Z,14.86
2018-10-15T04:47:43.719Z,14.85
2018-10-15T04:50:12.823Z,14.84
2018-10-15T04:52:42.572Z,14.83
2018-10-15T04:55:12.924Z,14.80
2018-10-15T04:57:43.125Z,14.74
2018-10-15T05:00:13.335Z,14.73
2018-10-15T05:02:42.213Z,14.71
2018-10-15T05:05:12.816Z,14.71
2018-10-15T05:07:42.715Z,14.70
2018-10-15T05:10:12.348Z,14.68
2018-10-15T05:12:41.367Z,14.67
2018-10-15T05:15:11.688Z,14.65
2018-10-15T05:17:42.220Z,14.64
2018-10-15T05:20:12.489Z,14.62
2018-10-15T05:22:42.215Z,14.61
2018-10-15T05:25:11.717Z,14.61
2018-10-15T05:27:40.812Z,14.62
2018-10-15T05:30:10.691Z,14.64
2018-10-15T05:32:40.489Z,14.64
2018-10-15T05:35:11.860Z,14.61
2018-10-15T05:37:41.913Z,14.58
2018-10-15T05:40:12.236Z,14.59
2018-10-15T05:42:41.914Z,14.57
2018-10-15T05:45:12.207Z,14.58
2018-10-15T05:47:42.141Z,14.56
2018-10-15T05:50:13.680Z,14.56
2018-10-15T05:52:44.020Z,14.55
2018-10-15T05:55:14.637Z,14.55
2018-10-15T05:57:43.836Z,14.55
2018-10-15T06:00:15.011Z,14.54
2018-10-15T06:02:44.625Z,14.55
2018-10-15T06:05:15.221Z,14.53
2018-10-15T06:07:44.874Z,14.55
2018-10-15T06:10:15.457Z,14.53
2018-10-15T06:12:45.740Z,14.55
2018-10-15T06:15:14.848Z,14.57
2018-10-15T06:17:43.974Z,14.56
2018-10-15T06:20:13.891Z,14.59
2018-10-15T06:22:44.003Z,14.58
2018-10-15T06:25:16.028Z,14.60
2018-10-15T06:27:46.858Z,14.59
2018-10-15T06:30:17.552Z,14.60
2018-10-15T06:32:46.574Z,14.62
2018-10-15T06:35:16.400Z,14.60
2018-10-15T06:37:46.801Z,14.61
2018-10-15T06:40:16.396Z,14.63
2018-10-15T06:42:46.110Z,14.62
2018-10-15T06:45:16.584Z,14.62
2018-10-15T06:47:45.559Z,14.67
2018-10-15T06:50:14.557Z,14.67
2018-10-15T06:52:43.605Z,14.67
2018-10-15T06:55:13.500Z,14.71
2018-10-15T06:57:44.831Z,14.73
2018-10-15T07:00:14.519Z,14.76
2018-10-15T07:02:44.287Z,14.79
2018-10-15T07:05:14.015Z,14.85
2018-10-15T07:07:43.443Z,14.87
2018-10-15T07:10:14.335Z,14.88
2018-10-15T07:12:43.861Z,14.92
2018-10-15T07:15:13.841Z,14.91
2018-10-15T07:17:43.067Z,14.92
2018-10-15T07:20:12.117Z,14.97
2018-10-15T07:22:43.057Z,15.01
2018-10-15T07:25:22.345Z,15.06
2018-10-15T07:27:52.194Z,15.11
2018-10-15T07:30:21.901Z,15.14
2018-10-15T07:32:51.897Z,15.18
2018-10-15T07:35:22.118Z,15.24
2018-10-15T07:37:51.328Z,15.29
2018-10-15T07:40:21.573Z,15.35
2018-10-15T07:42:51.645Z,15.33
2018-10-15T07:45:21.596Z,15.34
2018-10-15T07:47:51.103Z,15.44
2018-10-15T07:50:22.168Z,15.49
2018-10-15T07:52:51.667Z,15.53
2018-10-15T07:55:22.675Z,15.58
2018-10-15T07:57:52.806Z,15.65
2018-10-15T08:00:25.800Z,15.71
2018-10-15T08:02:55.751Z,15.78
2018-10-15T08:05:27.744Z,15.87
2018-10-15T08:07:57.954Z,15.94
2018-10-15T08:10:29.010Z,15.97
2018-10-15T08:12:59.998Z,16.05
2018-10-15T08:15:31.265Z,16.14
2018-10-15T08:18:02.627Z,16.24
2018-10-15T08:20:35.759Z,16.29
2018-10-15T08:23:07.708Z,16.38
2018-10-15T08:25:39.279Z,16.49
2018-10-15T08:28:13.137Z,16.51
2018-10-15T08:30:43.859Z,16.57
2018-10-15T08:33:14.559Z,16.66
2018-10-15T08:35:45.352Z,16.74
2018-10-15T08:38:15.266Z,16.84
2018-10-15T08:40:45.361Z,16.94
2018-10-15T08:43:14.527Z,17.01
2018-10-15T08:45:44.654Z,17.15
2018-10-15T08:48:14.755Z,17.25
2018-10-15T08:50:45.518Z,17.39
2018-10-15T08:53:15.852Z,17.53
2018-10-15T08:55:46.113Z,17.64
2018-10-15T08:58:15.752Z,17.74
2018-10-15T09:00:45.573Z,17.93
2018-10-15T09:03:14.963Z,18.04
2018-10-15T09:05:45.311Z,18.17
2018-10-15T09:08:14.481Z,18.14
2018-10-15T09:10:44.381Z,18.24
2018-10-15T09:13:14.212Z,18.19
2018-10-15T09:15:43.413Z,18.18
2018-10-15T09:18:12.877Z,18.23
2018-10-15T09:20:43.445Z,18.43
2018-10-15T09:23:13.135Z,18.35
2018-10-15T09:25:43.521Z,18.38
2018-10-15T09:28:12.612Z,18.45
2018-10-15T09:30:42.786Z,18.54
2018-10-15T09:33:12.967Z,18.55
2018-10-15T09:35:42.795Z,18.68
2018-10-15T09:38:11.893Z,18.73
2018-10-15T09:40:41.201Z,18.67
2018-10-15T09:43:10.772Z,18.91
2018-10-15T09:45:40.905Z,18.86
2018-10-15T09:48:10.304Z,18.89
2018-10-15T09:50:39.365Z,18.76
2018-10-15T09:53:10.562Z,18.79
2018-10-15T09:55:39.331Z,18.96
2018-10-15T09:58:08.558Z,19.15
2018-10-15T10:00:43.511Z,19.31
2018-10-15T10:03:13.295Z,19.46
2018-10-15T10:05:42.269Z,19.59
2018-10-15T10:08:11.817Z,19.59
2018-10-15T10:10:42.180Z,19.70
2018-10-15T10:13:12.782Z,19.69
2018-10-15T10:15:42.013Z,19.85
2018-10-15T10:18:12.181Z,19.98
2018-10-15T10:20:41.267Z,20.00
2018-10-15T10:23:11.946Z,20.05
2018-10-15T10:25:41.120Z,20.00
2018-10-15T10:28:11.089Z,20.01
2018-10-15T10:30:41.395Z,19.92
2018-10-15T10:33:11.685Z,19.80
2018-10-15T10:35:56.899Z,19.61
2018-10-15T10:38:56.001Z,19.67
2018-10-15T10:41:25.193Z,19.73
2018-10-15T10:43:55.380Z,19.73
2018-10-15T10:46:25.172Z,19.71
2018-10-15T10:48:54.232Z,19.85
2018-10-15T10:51:23.056Z,19.95
2018-10-15T10:53:53.824Z,19.96
2018-10-15T10:56:23.034Z,20.11
2018-10-15T10:58:52.099Z,20.28
2018-10-15T11:01:22.383Z,20.30
2018-10-15T11:03:52.020Z,20.45
2018-10-15T11:06:23.012Z,20.61
2018-10-15T11:08:53.138Z,20.73
2018-10-15T11:11:23.442Z,20.93
2018-10-15T11:13:53.030Z,21.10
2018-10-15T11:16:23.572Z,21.52
2018-10-15T11:18:53.443Z,21.77
2018-10-15T11:21:23.320Z,21.92
2018-10-15T11:23:52.698Z,21.87
2018-10-15T11:26:22.004Z,21.73
2018-10-15T11:28:51.034Z,21.60
2018-10-15T11:31:20.511Z,21.40
2018-10-15T11:33:49.622Z,21.42
2018-10-15T11:36:22.254Z,21.65
2018-10-15T11:38:52.469Z,21.78
2018-10-15T11:41:21.173Z,21.77
2018-10-15T11:43:51.007Z,21.52
2018-10-15T11:46:20.408Z,21.25
2018-10-15T11:48:49.946Z,21.26
2018-10-15T11:51:19.124Z,21.59
2018-10-15T11:53:48.195Z,21.98
2018-10-15T11:56:17.050Z,22.23
2018-10-15T11:58:45.894Z,22.15
2018-10-15T12:01:15.330Z,22.10
2018-10-15T12:03:45.035Z,21.92
2018-10-15T12:06:14.036Z,21.81
2018-10-15T12:08:43.485Z,21.68
2018-10-15T12:11:14.083Z,21.72
2018-10-15T12:13:45.875Z,21.51
2018-10-15T12:16:21.043Z,21.41
2018-10-15T12:18:50.355Z,21.28
2018-10-15T12:21:20.008Z,21.16
2018-10-15T12:23:49.092Z,21.01
2018-10-15T12:26:19.583Z,20.90
2018-10-15T12:28:49.700Z,20.86
2018-10-15T12:31:20.060Z,20.82
2018-10-15T12:33:49.243Z,20.84
2018-10-15T12:36:18.912Z,20.96
2018-10-15T12:38:48.382Z,21.07
2018-10-15T12:41:18.183Z,21.24
2018-10-15T12:43:47.332Z,21.42
2018-10-15T12:46:16.695Z,21.49
2018-10-15T12:48:46.997Z,21.48
2018-10-15T12:51:17.294Z,21.49
2018-10-15T12:53:47.929Z,21.48
2018-10-15T12:56:17.800Z,21.37
2018-10-15T12:58:48.017Z,21.33
2018-10-15T13:01:18.201Z,21.38
2018-10-15T13:03:47.836Z,21.34
2018-10-15T13:06:17.832Z,21.36
2018-10-15T13:08:47.083Z,21.35
2018-10-15T13:11:15.927Z,21.34
2018-10-15T13:13:44.846Z,21.25
2018-10-15T13:16:14.541Z,21.23
2018-10-15T13:18:43.434Z,21.14
2018-10-15T13:21:13.660Z,21.11
2018-10-15T13:23:42.914Z,21.04
2018-10-15T13:26:12.654Z,21.10
2018-10-15T13:28:41.662Z,21.10
2018-10-15T13:31:11.815Z,21.21
2018-10-15T13:33:41.185Z,21.19
2018-10-15T13:36:10.384Z,21.25
2018-10-15T13:38:39.380Z,21.20
2018-10-15T13:41:09.376Z,21.21
2018-10-15T13:43:39.206Z,21.15
2018-10-15T13:46:08.871Z,21.16
2018-10-15T13:48:38.217Z,21.14
2018-10-15T13:51:06.988Z,21.09
2018-10-15T13:53:35.855Z,21.08
2018-10-15T13:56:04.894Z,21.05
2018-10-15T13:58:33.983Z,20.99
2018-10-15T14:01:02.784Z,21.02
2018-10-15T14:03:31.602Z,21.04
2018-10-15T14:06:00.383Z,21.03
2018-10-15T14:08:29.216Z,20.98
2018-10-15T14:10:58.061Z,21.00
2018-10-15T14:13:27.068Z,21.03
2018-10-15T14:15:59.932Z,20.99
2018-10-15T14:18:29.399Z,20.94
2018-10-15T14:20:58.150Z,20.93
2018-10-15T14:23:27.179Z,20.95
2018-10-15T14:25:56.402Z,20.93
2018-10-15T14:28:25.408Z,20.93
2018-10-15T14:30:54.514Z,20.97
2018-10-15T14:33:23.603Z,20.90
2018-10-15T14:35:52.456Z,20.96
2018-10-15T14:38:21.491Z,20.96
2018-10-15T14:40:50.594Z,20.92
2018-10-15T14:43:20.766Z,20.97
2018-10-15T14:45:50.218Z,20.93
2018-10-15T14:48:19.002Z,20.96
2018-10-15T14:50:47.748Z,20.85
2018-10-15T14:53:16.634Z,20.84
2018-10-15T14:55:45.498Z,20.83
2018-10-15T14:58:14.377Z,20.79
2018-10-15T15:00:43.082Z,20.74
2018-10-15T15:03:12.016Z,20.66
2018-10-15T15:05:41.343Z,20.59
2018-10-15T15:08:10.854Z,20.53
2018-10-15T15:10:51.338Z,20.50
2018-10-15T15:13:31.851Z,20.48
2018-10-15T15:16:03.294Z,20.46
2018-10-15T15:18:33.082Z,20.34
2018-10-15T15:21:02.057Z,20.34
2018-10-15T15:23:32.034Z,20.31
2018-10-15T15:26:01.095Z,20.26
2018-10-15T15:28:30.988Z,20.23
2018-10-15T15:31:01.375Z,20.18
2018-10-15T15:33:30.450Z,20.12
2018-10-15T15:36:00.066Z,20.06
2018-10-15T15:38:30.385Z,20.00
2018-10-15T15:41:00.957Z,19.93
2018-10-15T15:43:32.984Z,19.85
2018-10-15T15:46:02.456Z,19.85
2018-10-15T15:48:32.847Z,19.80
2018-10-15T15:51:02.566Z,19.72
2018-10-15T15:53:31.970Z,19.68
2018-10-15T15:56:03.041Z,19.67
2018-10-15T15:58:32.797Z,19.61
2018-10-15T16:01:02.381Z,19.54
2018-10-15T16:03:32.076Z,19.53
2018-10-15T16:06:01.486Z,19.47
2018-10-15T16:08:31.537Z,19.43
2018-10-15T16:11:01.758Z,19.36
2018-10-15T16:13:32.573Z,19.30
2018-10-15T16:16:01.933Z,19.25
2018-10-15T16:18:32.582Z,19.23
2018-10-15T16:21:03.216Z,19.21
2018-10-15T16:23:33.030Z,19.14
2018-10-15T16:26:03.029Z,19.17
2018-10-15T16:28:32.392Z,19.17
2018-10-15T16:31:02.572Z,19.13
2018-10-15T16:33:32.662Z,19.12
2018-10-15T16:36:02.091Z,19.09
2018-10-15T16:38:30.883Z,19.06
2018-10-15T16:41:01.404Z,19.05
2018-10-15T16:43:30.430Z,18.97
2018-10-15T16:45:59.267Z,18.97
2018-10-15T16:48:28.147Z,18.91
2018-10-15T16:50:56.996Z,18.87
2018-10-15T16:53:26.045Z,18.85
2018-10-15T16:55:55.501Z,18.84
2018-10-15T16:58:24.781Z,18.78
2018-10-15T17:00:53.898Z,18.74
2018-10-15T17:03:23.279Z,18.70
2018-10-15T17:05:52.166Z,18.68
2018-10-15T17:08:21.927Z,18.64
2018-10-15T17:10:52.091Z,18.60
2018-10-15T17:13:21.220Z,18.57
2018-10-15T17:15:50.796Z,18.57
2018-10-15T17:18:19.894Z,18.56
2018-10-15T17:20:49.102Z,18.55
2018-10-15T17:23:18.627Z,18.54
2018-10-15T17:25:48.712Z,18.51
2018-10-15T17:28:19.994Z,18.51
2018-10-15T17:30:49.585Z,18.47
2018-10-15T17:33:18.641Z,18.46
2018-10-15T17:35:48.673Z,18.46
2018-10-15T17:38:18.020Z,18.42
2018-10-15T17:40:49.656Z,18.39
2018-10-15T17:43:19.341Z,18.36
2018-10-15T17:45:49.502Z,18.36
2018-10-15T17:48:18.553Z,18.34
2018-10-15T17:50:47.427Z,18.32
2018-10-15T17:53:16.196Z,18.29
2018-10-15T17:55:45.167Z,18.31
2018-10-15T17:58:13.974Z,18.31
2018-10-15T18:00:44.177Z,18.27
2018-10-15T18:03:13.274Z,18.25
2018-10-15T18:05:42.600Z,18.25
2018-10-15T18:08:11.887Z,18.26
2018-10-15T18:10:40.779Z,18.26
2018-10-15T18:13:10.696Z,18.23
2018-10-15T18:15:40.512Z,18.20
2018-10-15T18:18:10.517Z,18.19
2018-10-15T18:20:39.824Z,18.17
2018-10-15T18:23:08.885Z,18.16
2018-10-15T18:25:37.772Z,18.15
2018-10-15T18:28:06.940Z,18.15
2018-10-15T18:30:41.974Z,18.14
2018-10-15T18:33:10.827Z,18.12
2018-10-15T18:35:39.642Z,18.09
2018-10-15T18:38:09.111Z,18.07
2018-10-15T18:40:38.369Z,18.06
2018-10-15T18:43:08.285Z,18.04
2018-10-15T18:45:37.121Z,18.00
2018-10-15T18:48:06.363Z,17.99
2018-10-15T18:50:35.167Z,17.95
2018-10-15T18:53:03.958Z,17.93
2018-10-15T18:55:33.452Z,17.91
2018-10-15T18:58:03.029Z,17.88
2018-10-15T19:00:32.762Z,17.86
2018-10-15T19:03:03.056Z,17.81
2018-10-15T19:05:33.599Z,17.78
2018-10-15T19:08:02.379Z,17.74
2018-10-15T19:10:32.984Z,17.70
2018-10-15T19:13:01.986Z,17.68
2018-10-15T19:15:31.557Z,17.65
2018-10-15T19:18:01.428Z,17.65
2018-10-15T19:20:31.069Z,17.62
2018-10-15T19:23:00.219Z,17.60
2018-10-15T19:25:31.769Z,17.58
2018-10-15T19:28:00.587Z,17.58
2018-10-15T19:30:29.993Z,17.55
2018-10-15T19:32:58.814Z,17.54
2018-10-15T19:35:27.597Z,17.53
2018-10-15T19:37:56.737Z,17.50
2018-10-15T19:40:26.873Z,17.50
2018-10-15T19:42:56.711Z,17.49
2018-10-15T19:45:27.147Z,17.48
2018-10-15T19:47:56.586Z,17.47
2018-10-15T19:50:25.916Z,17.47
2018-10-15T19:52:55.056Z,17.43
2018-10-15T19:55:24.824Z,17.41
2018-10-15T19:57:53.553Z,17.38
2018-10-15T20:00:22.539Z,17.36
2018-10-15T20:02:51.747Z,17.39
2018-10-15T20:05:21.091Z,17.38
2018-10-15T20:07:51.374Z,17.35
2018-10-15T20:10:21.492Z,17.33
2018-10-15T20:12:50.757Z,17.30
2018-10-15T20:15:19.977Z,17.27
2018-10-15T20:17:48.715Z,17.25
2018-10-15T20:20:17.945Z,17.22
2018-10-15T20:22:46.958Z,17.21
2018-10-15T20:25:15.929Z,17.18
2018-10-15T20:27:45.056Z,17.16
2018-10-15T20:30:15.043Z,17.13
2018-10-15T20:32:44.342Z,17.10
2018-10-15T20:35:13.751Z,17.03
2018-10-15T20:37:43.520Z,17.03
2018-10-15T20:40:13.152Z,17.01
2018-10-15T20:42:43.375Z,17.01
2018-10-15T20:45:16.274Z,17.03
2018-10-15T20:47:46.075Z,17.01
2018-10-15T20:50:15.365Z,17.01
2018-10-15T20:52:44.266Z,17.02
2018-10-15T20:55:13.222Z,17.01
2018-10-15T20:57:43.804Z,16.99
2018-10-15T21:00:13.749Z,16.98
2018-10-15T21:02:44.369Z,16.98
2018-10-15T21:05:14.410Z,16.96
2018-10-15T21:07:44.178Z,16.95
2018-10-15T21:10:13.141Z,16.92
2018-10-15T21:12:42.105Z,16.91
2018-10-15T21:15:11.820Z,16.90
2018-10-15T21:17:41.328Z,16.90
2018-10-15T21:20:10.921Z,16.89
2018-10-15T21:22:40.749Z,16.89
2018-10-15T21:25:10.485Z,16.89
2018-10-15T21:27:39.840Z,16.86
2018-10-15T21:30:09.910Z,16.86
2018-10-15T21:32:39.386Z,16.84
2018-10-15T21:35:09.887Z,16.80
2018-10-15T21:37:39.122Z,16.76
2018-10-15T21:40:08.342Z,16.75
2018-10-15T21:42:37.451Z,16.72
2018-10-15T21:45:07.195Z,16.68
2018-10-15T21:47:37.040Z,16.64
2018-10-15T21:50:07.590Z,16.62
2018-10-15T21:52:36.837Z,16.59
2018-10-15T21:55:06.931Z,16.56
2018-10-15T21:57:38.965Z,16.53
2018-10-15T22:00:15.892Z,16.50
2018-10-15T22:02:44.998Z,16.48
2018-10-15T22:05:14.410Z,16.45
2018-10-15T22:07:43.886Z,16.43
2018-10-15T22:10:19.032Z,16.40
2018-10-15T22:12:48.773Z,16.38
2018-10-15T22:15:18.131Z,16.37
2018-10-15T22:17:48.297Z,16.36
2018-10-15T22:20:17.409Z,16.34
2018-10-15T22:22:46.727Z,16.28
2018-10-15T22:25:17.429Z,16.25
2018-10-15T22:27:46.624Z,16.23
2018-10-15T22:30:15.954Z,16.19
2018-10-15T22:32:45.487Z,16.16
2018-10-15T22:35:14.531Z,16.15
2018-10-15T22:37:43.454Z,16.11
2018-10-15T22:40:13.162Z,16.08
2018-10-15T22:42:42.461Z,16.07
2018-10-15T22:45:13.048Z,16.05
2018-10-15T22:47:43.962Z,16.02
2018-10-15T22:50:14.306Z,16.02
2018-10-15T22:52:43.231Z,16.02
2018-10-15T22:55:12.730Z,16.02
2018-10-15T22:57:41.863Z,16.00
2018-10-15T23:00:15.813Z,15.98
2018-10-15T23:02:45.382Z,15.97
2018-10-15T23:05:14.921Z,15.93
2018-10-15T23:07:45.453Z,15.93
2018-10-15T23:10:20.158Z,15.90
2018-10-15T23:12:49.138Z,15.88
2018-10-15T23:15:18.023Z,15.87
2018-10-15T23:17:47.587Z,15.83
2018-10-15T23:20:17.067Z,15.80
2018-10-15T23:22:47.352Z,15.80
2018-10-15T23:25:16.712Z,15.74
2018-10-15T23:27:46.482Z,15.73
2018-10-15T23:30:16.687Z,15.56
2018-10-15T23:32:46.452Z,15.51
2018-10-15T23:35:16.639Z,15.55
2018-10-15T23:37:45.617Z,15.56
2018-10-15T23:40:15.721Z,15.57
2018-10-15T23:42:45.202Z,15.56
2018-10-15T23:45:14.227Z,15.53
2018-10-15T23:47:45.556Z,15.52
2018-10-15T23:50:16.241Z,15.52
2018-10-15T23:52:45.246Z,15.51
2018-10-15T23:55:14.561Z,15.52
2018-10-15T23:57:43.797Z,15.45
